Time;durP1;ratioP1;P1;durP2;ratioP2;P2;SDS_P1;SDS_P2;PMS_P1;PMS_P2;Temp;Humidity;BMP_temperature;BMP_pressure;BME280_temperature;BME280_humidity;BME280_pressure;Samples;Min_cycle;Max_cycle;Signal;HPM_P1;HPM_P2
2021/04/26 00:01:40;;;;;;;1.30;0.30;;;;;;;10.41;47.12;101411.59;4903592;28;128322;-59
2021/04/26 00:04:06;;;;;;;1.35;0.47;;;;;;;10.36;46.95;101409.66;4897919;28;128083;-58
2021/04/26 00:06:32;;;;;;;1.13;0.30;;;;;;;10.34;47.13;101403.69;4900694;28;102004;-61
2021/04/26 00:08:58;;;;;;;1.23;0.40;;;;;;;10.36;47.55;101398.06;4904532;28;98948;-61
2021/04/26 00:11:24;;;;;;;1.88;0.50;;;;;;;10.35;46.80;101394.53;4903227;28;127731;-59
2021/04/26 00:13:50;;;;;;;2.03;0.88;;;;;;;10.32;47.13;101393.13;4903357;28;126803;-61
2021/04/26 00:16:17;;;;;;;1.75;0.77;;;;;;;10.30;46.93;101394.47;4901985;28;117992;-58
2021/04/26 00:18:43;;;;;;;2.88;1.23;;;;;;;10.27;47.08;101392.25;4902961;28;127795;-58
2021/04/26 00:21:09;;;;;;;2.85;1.13;;;;;;;10.26;47.33;101388.75;4903276;28;127510;-58
2021/04/26 00:23:35;;;;;;;2.78;1.10;;;;;;;10.21;47.09;101385.09;4903481;28;127648;-62
2021/04/26 00:26:01;;;;;;;2.22;1.33;;;;;;;10.21;47.14;101391.28;4919222;28;97987;-59
2021/04/26 00:28:27;;;;;;;2.58;1.17;;;;;;;10.15;47.57;101388.78;4902384;28;127885;-60
2021/04/26 00:30:53;;;;;;;2.60;1.60;;;;;;;10.17;47.60;101389.31;4901157;28;127324;-61
2021/04/26 00:33:19;;;;;;;2.83;1.67;;;;;;;10.15;47.34;101386.88;4917971;28;127140;-58
2021/04/26 00:35:45;;;;;;;3.38;1.65;;;;;;;10.13;47.07;101380.91;4902526;28;117985;-60
2021/04/26 00:38:11;;;;;;;2.28;1.50;;;;;;;10.08;46.98;101381.63;4902634;28;127904;-61
2021/04/26 00:40:38;;;;;;;3.08;1.80;;;;;;;10.13;47.21;101382.78;4902136;28;97948;-61
2021/04/26 00:43:04;;;;;;;2.40;1.70;;;;;;;10.05;47.11;101381.31;4901302;28;127338;-59
2021/04/26 00:45:30;;;;;;;3.13;1.70;;;;;;;10.02;47.28;101382.63;4904319;28;101835;-61
2021/04/26 00:47:56;;;;;;;3.20;1.98;;;;;;;10.01;47.22;101377.47;4902859;28;127175;-61
2021/04/26 00:50:28;;;;;;;3.33;1.83;;;;;;;9.97;46.79;101373.63;4902713;28;127880;-61
2021/04/26 00:52:55;;;;;;;2.97;1.80;;;;;;;9.98;46.85;101375.25;4903640;28;98493;-61
2021/04/26 00:55:26;;;;;;;2.78;1.48;;;;;;;9.95;47.01;101371.16;4917281;28;116814;-61
2021/04/26 00:57:52;;;;;;;2.90;1.75;;;;;;;9.96;46.85;101372.81;4918332;28;98746;-61
2021/04/26 01:00:19;;;;;;;3.60;1.80;;;;;;;9.93;47.22;101364.38;4901934;28;112239;-58
2021/04/26 01:02:45;;;;;;;2.78;1.67;;;;;;;9.91;46.89;101370.03;4903931;28;98366;-59
2021/04/26 01:05:15;;;;;;;3.45;1.70;;;;;;;9.90;47.24;101373.75;4903087;28;116762;-61
2021/04/26 01:07:41;;;;;;;2.40;1.60;;;;;;;9.85;47.64;101370.97;4902646;28;98529;-61
2021/04/26 01:10:09;;;;;;;2.47;1.40;;;;;;;9.87;47.00;101374.25;4904530;28;98294;-59
2021/04/26 01:13:14;;;;;;;2.90;1.42;;;;;;;9.83;46.70;101375.78;4900742;28;116758;-59
2021/04/26 01:16:16;;;;;;;2.13;1.13;;;;;;;9.77;47.16;101376.75;4902114;28;98230;-59
2021/04/26 01:18:55;;;;;;;2.80;1.45;;;;;;;9.75;46.99;101371.59;4893456;28;98186;-61
2021/04/26 01:21:54;;;;;;;2.60;1.10;;;;;;;9.74;46.92;101372.63;4900842;28;99801;-58
2021/04/26 01:25:03;;;;;;;1.80;1.13;;;;;;;9.72;47.20;101379.34;4903069;28;97855;-61
2021/04/26 01:27:47;;;;;;;1.88;1.25;;;;;;;9.69;47.11;101377.94;4888444;28;97965;-61
2021/04/26 01:30:41;;;;;;;2.50;1.05;;;;;;;9.68;47.09;101381.69;4901880;28;98280;-58
2021/04/26 01:33:14;;;;;;;1.83;1.10;;;;;;;9.68;47.01;101380.88;4896217;28;100579;-58
2021/04/26 01:35:40;;;;;;;;;;;;;;;9.63;47.28;101378.06;4917295;28;112740;-58
2021/04/26 01:38:28;;;;;;;2.08;0.95;;;;;;;9.68;47.11;101376.31;4903567;28;98028;-61
2021/04/26 01:40:57;;;;;;;2.05;1.05;;;;;;;9.67;46.56;101382.75;4885365;28;98584;-59
2021/04/26 01:43:25;;;;;;;1.85;0.90;;;;;;;9.66;47.18;101380.28;4917762;28;98783;-58
2021/04/26 01:45:57;;;;;;;2.78;1.05;;;;;;;9.68;46.91;101376.31;4901153;28;97853;-59
2021/04/26 01:48:25;;;;;;;1.92;0.90;;;;;;;9.69;46.51;101375.25;4901004;28;105343;-61
2021/04/26 01:50:51;;;;;;;1.70;0.82;;;;;;;9.72;46.97;101371.25;4901131;28;98413;-61
2021/04/26 01:53:20;;;;;;;2.13;0.90;;;;;;;9.72;46.72;101366.69;4901498;28;127763;-59
2021/04/26 01:55:47;;;;;;;1.52;0.80;;;;;;;9.77;46.51;101371.34;4900377;28;127767;-61
2021/04/26 01:58:16;;;;;;;1.50;0.90;;;;;;;9.75;46.12;101373.47;4900778;28;108487;-61
2021/04/26 02:00:42;;;;;;;2.55;0.95;;;;;;;9.66;46.47;101374.91;4885931;28;98130;-59
2021/04/26 02:03:09;;;;;;;1.95;0.75;;;;;;;9.67;46.05;101384.59;4882078;28;98287;-59
2021/04/26 02:05:35;;;;;;;2.38;0.70;;;;;;;9.70;46.31;101381.44;4897483;28;98004;-59
2021/04/26 02:08:02;;;;;;;1.63;0.60;;;;;;;9.65;46.26;101386.72;4873981;28;118479;-59
2021/04/26 02:10:29;;;;;;;1.48;0.60;;;;;;;9.65;46.68;101386.72;4900878;28;104168;-61
2021/04/26 02:12:56;;;;;;;1.83;0.73;;;;;;;9.62;46.42;101387.19;4901067;28;98701;-61
2021/04/26 02:15:22;;;;;;;2.55;0.70;;;;;;;9.62;46.90;101381.81;4902325;28;98101;-61
2021/04/26 02:17:50;;;;;;;1.98;0.70;;;;;;;9.61;46.32;101377.50;4901494;28;98913;-58
2021/04/26 02:20:16;;;;;;;1.77;0.60;;;;;;;9.52;46.61;101375.19;4902268;28;99193;-61
2021/04/26 02:22:43;;;;;;;1.80;0.73;;;;;;;9.56;46.61;101370.97;4901664;28;118824;-59
2021/04/26 02:25:11;;;;;;;2.55;0.80;;;;;;;9.51;46.80;101370.88;4901790;28;100880;-58
2021/04/26 02:27:38;;;;;;;1.58;0.60;;;;;;;9.54;46.45;101366.84;4916298;28;98012;-61
2021/04/26 02:30:05;;;;;;;2.05;0.65;;;;;;;9.52;46.69;101371.69;4901429;28;98737;-61
2021/04/26 02:32:55;;;;;;;2.35;0.68;;;;;;;9.47;46.67;101376.94;4901846;28;111923;-61
2021/04/26 02:35:49;;;;;;;2.28;0.50;;;;;;;9.40;46.87;101366.31;4901613;28;97954;-59
2021/04/26 02:38:24;;;;;;;1.08;0.50;;;;;;;9.44;46.85;101369.38;4887628;28;97994;-61
2021/04/26 02:40:52;;;;;;;1.27;0.60;;;;;;;9.37;46.67;101369.47;4901807;28;115947;-59
2021/04/26 02:43:19;;;;;;;2.15;0.57;;;;;;;9.43;46.97;101355.09;4902214;28;98721;-59
2021/04/26 02:45:56;;;;;;;1.38;0.40;;;;;;;9.37;47.00;101360.59;4899615;28;118871;-59
2021/04/26 02:48:22;;;;;;;1.75;0.63;;;;;;;9.39;46.63;101361.97;4881913;28;98007;-59
2021/04/26 02:50:51;;;;;;;1.70;0.60;;;;;;;9.36;46.84;101361.66;4898375;28;127420;-62
2021/04/26 02:53:18;;;;;;;1.50;0.45;;;;;;;9.33;46.98;101355.69;4884464;28;98356;-61
2021/04/26 02:55:44;;;;;;;1.60;0.60;;;;;;;9.26;47.05;101355.00;4867478;28;117606;-59
2021/04/26 02:58:10;;;;;;;1.95;0.80;;;;;;;9.29;47.01;101354.53;4883691;28;104650;-59
2021/04/26 03:00:36;;;;;;;2.75;0.50;;;;;;;9.24;46.92;101350.91;4900491;28;113915;-61
2021/04/26 03:03:03;;;;;;;1.35;0.50;;;;;;;9.24;46.73;101354.44;4899174;28;126618;-61
2021/04/26 03:05:29;;;;;;;1.83;0.70;;;;;;;9.22;46.72;101353.81;4901708;28;97767;-59
2021/04/26 03:07:55;;;;;;;1.70;0.63;;;;;;;9.23;47.17;101362.72;4883973;28;117589;-61
2021/04/26 03:10:21;;;;;;;2.88;0.80;;;;;;;9.22;47.09;101351.13;4884242;28;104527;-59
2021/04/26 03:12:51;;;;;;;1.70;0.65;;;;;;;9.15;47.12;101349.63;4899186;28;128902;-58
2021/04/26 03:15:22;;;;;;;1.40;0.60;;;;;;;9.12;46.76;101356.31;4902026;28;98589;-61
2021/04/26 03:17:48;;;;;;;2.35;0.57;;;;;;;9.15;47.18;101352.31;4886982;28;98124;-61
2021/04/26 03:20:16;;;;;;;2.03;0.60;;;;;;;9.12;47.07;101350.94;4903620;28;128005;-61
2021/04/26 03:22:43;;;;;;;1.85;0.60;;;;;;;9.10;46.65;101351.16;4905498;28;99075;-59
2021/04/26 03:25:10;;;;;;;2.03;0.70;;;;;;;9.13;47.02;101349.88;4887083;28;98143;-61
2021/04/26 03:27:37;;;;;;;1.63;0.50;;;;;;;9.02;47.02;101356.91;4903294;28;98103;-59
2021/04/26 03:30:05;;;;;;;2.55;0.60;;;;;;;9.02;47.02;101345.31;4903050;28;98305;-61
2021/04/26 03:32:31;;;;;;;1.83;0.73;;;;;;;9.00;46.48;101336.66;4904288;28;115701;-61
2021/04/26 03:34:57;;;;;;;1.40;0.55;;;;;;;9.03;46.73;101342.38;4902558;28;127238;-61
2021/04/26 03:37:23;;;;;;;1.73;0.70;;;;;;;8.98;47.10;101334.22;4903047;28;104026;-59
2021/04/26 03:39:49;;;;;;;2.10;0.70;;;;;;;9.00;46.96;101350.09;4885309;28;128138;-59
2021/04/26 03:42:18;;;;;;;1.77;0.70;;;;;;;8.98;46.95;101344.16;4919186;28;99007;-61
2021/04/26 03:44:46;;;;;;;1.45;0.75;;;;;;;8.97;46.80;101337.97;4904920;28;112101;-58
2021/04/26 03:47:13;;;;;;;1.65;0.60;;;;;;;8.99;46.54;101332.34;4904865;28;97844;-61
2021/04/26 03:49:39;;;;;;;1.98;0.77;;;;;;;8.98;46.79;101333.41;4902675;28;126937;-59
2021/04/26 03:52:06;;;;;;;1.25;0.70;;;;;;;8.96;46.96;101344.41;4904393;28;99509;-61
2021/04/26 03:54:32;;;;;;;1.75;0.60;;;;;;;8.94;46.77;101334.94;4904684;28;114701;-61
2021/04/26 03:56:58;;;;;;;1.75;0.90;;;;;;;8.94;46.91;101341.13;4904816;28;97894;-59
2021/04/26 03:59:24;;;;;;;1.70;0.80;;;;;;;8.90;47.12;101333.75;4904303;28;105925;-58
2021/04/26 04:01:51;;;;;;;1.83;0.85;;;;;;;8.90;47.32;101342.66;4903099;28;126893;-59
2021/04/26 04:04:17;;;;;;;2.00;0.80;;;;;;;8.93;47.46;101336.00;4902354;28;98047;-61
2021/04/26 04:06:43;;;;;;;1.55;0.77;;;;;;;8.87;46.87;101337.72;4900953;28;118689;-61
2021/04/26 04:09:09;;;;;;;2.17;0.80;;;;;;;8.94;46.84;101343.81;4903464;28;128311;-61
2021/04/26 04:11:35;;;;;;;1.83;0.75;;;;;;;8.84;47.07;101339.03;4904846;28;98060;-59
2021/04/26 04:14:03;;;;;;;1.60;1.00;;;;;;;8.91;47.25;101328.13;4904885;28;98228;-61
2021/04/26 04:16:29;;;;;;;1.85;0.93;;;;;;;8.90;47.28;101337.25;4904043;28;98003;-61
2021/04/26 04:18:56;;;;;;;1.67;0.80;;;;;;;8.92;47.25;101343.25;4886398;28;103792;-59
2021/04/26 04:21:22;;;;;;;3.05;1.05;;;;;;;8.95;46.90;101329.31;4904296;28;115686;-59
2021/04/26 04:23:48;;;;;;;1.80;1.15;;;;;;;8.93;47.21;101334.13;4904516;28;98691;-61
2021/04/26 04:26:14;;;;;;;2.08;1.10;;;;;;;8.94;46.85;101334.94;4903553;28;97930;-61
2021/04/26 04:28:40;;;;;;;2.10;1.10;;;;;;;8.97;47.46;101327.22;4902577;28;128361;-58
2021/04/26 04:31:06;;;;;;;3.25;1.23;;;;;;;8.91;47.08;101332.69;4904024;28;101840;-61
2021/04/26 04:33:32;;;;;;;2.33;1.08;;;;;;;8.91;47.41;101327.31;4901841;28;127494;-59
2021/04/26 04:35:59;;;;;;;2.47;1.20;;;;;;;8.97;47.63;101318.34;4900134;28;118715;-59
2021/04/26 04:38:25;;;;;;;2.35;1.00;;;;;;;8.99;47.33;101321.59;4900391;28;98497;-61
2021/04/26 04:40:53;;;;;;;2.25;1.20;;;;;;;8.97;47.20;101329.09;4897955;28;100796;-59
2021/04/26 04:43:19;;;;;;;2.63;1.00;;;;;;;8.99;47.37;101324.28;4900268;28;98036;-61
2021/04/26 04:45:45;;;;;;;2.65;1.13;;;;;;;8.98;47.26;101326.16;4900547;28;98196;-59
2021/04/26 04:48:11;;;;;;;2.17;1.20;;;;;;;9.01;47.41;101325.69;4899308;28;128043;-61
2021/04/26 04:50:37;;;;;;;2.03;1.02;;;;;;;9.06;47.66;101327.66;4897900;28;128115;-61
2021/04/26 04:53:03;;;;;;;2.72;1.15;;;;;;;9.08;47.45;101325.56;4898926;28;128052;-59
2021/04/26 04:55:29;;;;;;;2.25;1.02;;;;;;;9.16;47.28;101332.47;4900016;28;118682;-59
2021/04/26 04:57:55;;;;;;;2.95;0.88;;;;;;;9.19;47.43;101329.28;4899776;28;129116;-59
2021/04/26 05:00:22;;;;;;;2.65;0.75;;;;;;;9.24;47.22;101330.22;4899538;28;128138;-61
2021/04/26 05:02:48;;;;;;;2.00;0.93;;;;;;;9.30;47.60;101328.44;4899618;28;126103;-61
2021/04/26 05:05:14;;;;;;;1.85;0.88;;;;;;;9.33;47.59;101325.28;4898276;28;117032;-61
2021/04/26 05:07:40;;;;;;;2.40;0.90;;;;;;;9.40;47.20;101328.66;4899921;28;126151;-59
2021/04/26 05:10:07;;;;;;;1.88;0.88;;;;;;;9.44;46.99;101316.34;4898225;28;128127;-61
2021/04/26 05:12:34;;;;;;;1.60;0.70;;;;;;;9.54;47.16;101313.03;4899521;28;117227;-61
2021/04/26 05:15:00;;;;;;;1.70;0.80;;;;;;;9.57;47.23;101318.75;4898714;28;97822;-59
2021/04/26 05:17:26;;;;;;;2.08;0.80;;;;;;;9.71;47.55;101310.41;4900065;28;99112;-61
2021/04/26 05:19:53;;;;;;;2.78;1.10;;;;;;;9.75;47.07;101309.69;4899303;28;98270;-61
2021/04/26 05:22:19;;;;;;;1.45;0.70;;;;;;;9.85;47.41;101306.34;4898354;28;110546;-59
2021/04/26 05:24:45;;;;;;;2.22;0.82;;;;;;;9.96;46.83;101305.47;4899720;28;117433;-61
2021/04/26 05:27:11;;;;;;;1.65;0.70;;;;;;;10.03;46.77;101300.75;4897540;28;114260;-61
2021/04/26 05:29:37;;;;;;;1.52;0.80;;;;;;;10.19;46.68;101309.09;4899036;28;128909;-61
2021/04/26 05:32:03;;;;;;;1.90;0.57;;;;;;;10.36;46.17;101306.41;4899595;28;128314;-61
2021/04/26 05:34:29;;;;;;;2.20;0.60;;;;;;;10.57;46.26;101300.25;4892325;28;108327;-59
2021/04/26 05:36:56;;;;;;;1.58;0.77;;;;;;;10.74;45.72;101305.66;4898865;28;126562;-61
2021/04/26 05:39:22;;;;;;;2.28;1.08;;;;;;;10.98;45.74;101306.25;4898701;28;124380;-61
2021/04/26 05:41:48;;;;;;;1.27;0.50;;;;;;;11.20;44.86;101308.94;4899082;28;99270;-61
2021/04/26 05:44:14;;;;;;;1.73;0.80;;;;;;;11.39;45.27;101306.75;4899863;28;116744;-61
2021/04/26 05:46:40;;;;;;;2.22;1.00;;;;;;;11.72;44.75;101300.38;4898475;28;127539;-61
2021/04/26 05:49:06;;;;;;;2.45;0.70;;;;;;;11.90;43.98;101299.22;4898956;28;127587;-59
2021/04/26 05:51:32;;;;;;;2.08;0.90;;;;;;;12.09;44.41;101303.19;4881752;28;98134;-61
2021/04/26 05:53:58;;;;;;;1.73;0.80;;;;;;;12.39;43.75;101301.81;4900434;28;97900;-59
2021/04/26 05:56:24;;;;;;;2.42;0.70;;;;;;;12.60;43.90;101300.06;4899564;28;98448;-61
2021/04/26 05:58:50;;;;;;;1.55;0.63;;;;;;;12.86;43.08;101298.31;4881087;28;100257;-62
2021/04/26 06:01:17;;;;;;;1.45;0.70;;;;;;;13.07;43.73;101291.94;4898696;28;111722;-59
2021/04/26 06:03:43;;;;;;;1.23;0.60;;;;;;;13.35;43.23;101287.19;4899057;28;116796;-59
2021/04/26 06:06:09;;;;;;;1.42;0.55;;;;;;;13.50;42.88;101289.94;4898690;28;98415;-59
2021/04/26 06:08:35;;;;;;;1.67;0.63;;;;;;;13.79;42.88;101281.31;4898892;28;127928;-61
2021/04/26 06:11:01;;;;;;;1.58;0.60;;;;;;;14.04;42.35;101280.56;4896444;28;115279;-61
2021/04/26 06:13:27;;;;;;;1.95;0.60;;;;;;;14.29;42.00;101274.31;4899461;28;98147;-59
2021/04/26 06:15:53;;;;;;;2.20;0.50;;;;;;;14.57;41.36;101287.31;4898004;28;128013;-61
2021/04/26 06:18:21;;;;;;;1.45;0.50;;;;;;;14.91;40.72;101276.66;4897333;28;98396;-61
2021/04/26 06:20:49;;;;;;;0.90;0.40;;;;;;;15.25;40.32;101272.44;4882049;28;98427;-61
2021/04/26 06:23:16;;;;;;;1.92;0.40;;;;;;;15.69;39.26;101272.50;4899831;28;97967;-59
2021/04/26 06:25:43;;;;;;;1.05;0.40;;;;;;;16.12;38.72;101267.28;4898647;28;106753;-61
2021/04/26 06:28:12;;;;;;;2.05;0.40;;;;;;;16.69;37.70;101269.16;4898745;28;97873;-60
2021/04/26 06:30:39;;;;;;;1.63;0.32;;;;;;;17.11;37.30;101262.19;4898654;28;98322;-61
2021/04/26 06:33:06;;;;;;;0.82;0.30;;;;;;;17.57;36.70;101263.47;4899402;28;100652;-61
2021/04/26 06:35:32;;;;;;;0.90;0.40;;;;;;;17.74;36.21;101262.94;4899554;28;98282;-59
2021/04/26 06:37:59;;;;;;;0.70;0.30;;;;;;;18.24;35.82;101246.88;4898539;28;98060;-62
2021/04/26 06:40:25;;;;;;;0.90;0.30;;;;;;;18.65;35.12;101242.28;4898983;28;98220;-62
2021/04/26 06:42:52;;;;;;;0.85;0.30;;;;;;;18.81;34.38;101255.66;4899582;28;97980;-62
2021/04/26 06:45:21;;;;;;;1.02;0.30;;;;;;;19.42;33.80;101250.84;4898449;28;126828;-63
2021/04/26 06:47:51;;;;;;;1.92;0.30;;;;;;;19.49;33.37;101241.09;4896551;28;98827;-61
2021/04/26 06:50:18;;;;;;;1.65;0.30;;;;;;;19.64;33.24;101241.88;4898850;28;98892;-59
2021/04/26 06:52:45;;;;;;;1.00;0.30;;;;;;;20.18;32.30;101243.53;4902080;28;98198;-60
2021/04/26 06:55:12;;;;;;;0.88;0.30;;;;;;;20.66;31.43;101234.63;4901570;28;98889;-61
2021/04/26 06:57:38;;;;;;;0.95;0.30;;;;;;;20.97;30.71;101239.22;4899230;28;116397;-59
2021/04/26 07:00:06;;;;;;;1.35;0.30;;;;;;;21.51;30.46;101228.84;4900728;28;98270;-59
2021/04/26 07:02:32;;;;;;;1.00;0.30;;;;;;;21.68;29.81;101225.28;4901671;28;97981;-59
2021/04/26 07:04:58;;;;;;;0.80;0.30;;;;;;;21.89;29.80;101228.97;4899839;28;99174;-61
2021/04/26 07:07:24;;;;;;;0.60;0.20;;;;;;;22.05;29.94;101232.03;4899183;28;127294;-61
2021/04/26 07:09:51;;;;;;;0.75;0.20;;;;;;;22.21;29.91;101229.59;4884509;28;101541;-59
2021/04/26 07:12:18;;;;;;;0.88;0.30;;;;;;;22.51;29.68;101231.22;4902768;28;98100;-61
2021/04/26 07:14:44;;;;;;;1.35;0.30;;;;;;;22.86;29.18;101230.28;4901231;28;98555;-61
2021/04/26 07:17:10;;;;;;;0.88;0.20;;;;;;;23.10;28.62;101235.16;4901683;28;98519;-61
2021/04/26 07:19:36;;;;;;;0.85;0.20;;;;;;;23.37;28.79;101231.91;4900865;28;126310;-61
2021/04/26 07:22:02;;;;;;;0.82;0.20;;;;;;;23.61;28.47;101233.16;4901990;28;100880;-59
2021/04/26 07:24:28;;;;;;;0.88;0.20;;;;;;;23.96;27.86;101233.66;4899864;28;110521;-61
2021/04/26 07:26:55;;;;;;;1.02;0.25;;;;;;;24.22;27.79;101234.19;4898664;28;128323;-61
2021/04/26 07:29:21;;;;;;;0.80;0.22;;;;;;;24.39;27.17;101226.91;4901515;28;127680;-59
2021/04/26 07:31:47;;;;;;;0.85;0.20;;;;;;;24.63;26.84;101232.44;4899014;28;110280;-59
2021/04/26 07:34:13;;;;;;;1.00;0.20;;;;;;;24.69;27.33;101233.81;4901212;28;124104;-59
2021/04/26 07:36:39;;;;;;;0.50;0.15;;;;;;;24.84;27.11;101229.56;4900895;28;127912;-62
2021/04/26 07:39:05;;;;;;;1.30;0.20;;;;;;;25.03;26.89;101222.63;4901767;28;98419;-62
2021/04/26 07:41:31;;;;;;;0.77;0.20;;;;;;;25.35;26.39;101224.47;4901408;28;104483;-62
2021/04/26 07:43:58;;;;;;;1.02;0.20;;;;;;;25.62;26.08;101222.88;4899773;28;100556;-61
2021/04/26 07:46:24;;;;;;;1.38;0.20;;;;;;;25.93;25.87;101224.91;4900735;28;125118;-62
2021/04/26 07:48:50;;;;;;;1.20;0.17;;;;;;;26.19;24.73;101220.88;4899326;28;127721;-62
2021/04/26 07:51:16;;;;;;;0.50;0.15;;;;;;;26.55;24.79;101219.81;4901489;28;97908;-62
2021/04/26 07:53:42;;;;;;;0.50;0.10;;;;;;;26.93;25.07;101215.56;4899940;28;128008;-62
2021/04/26 07:56:08;;;;;;;1.10;0.28;;;;;;;27.35;24.79;101210.22;4899962;28;116530;-62
2021/04/26 07:58:34;;;;;;;0.70;0.20;;;;;;;27.92;23.48;101212.50;4899239;28;125946;-62
2021/04/26 08:01:01;;;;;;;0.73;0.13;;;;;;;28.09;23.53;101218.34;4898843;28;97956;-62
2021/04/26 08:03:27;;;;;;;1.98;0.20;;;;;;;28.76;22.99;101209.59;4899569;28;98344;-60
2021/04/26 08:05:54;;;;;;;1.20;0.20;;;;;;;29.37;22.66;101210.44;4900520;28;98430;-60
2021/04/26 08:08:20;;;;;;;1.08;0.20;;;;;;;30.13;21.68;101212.06;4899996;28;100907;-60
2021/04/26 08:10:46;;;;;;;0.75;0.10;;;;;;;30.78;21.39;101217.81;4901189;28;97680;-62
2021/04/26 08:13:13;;;;;;;0.73;0.20;;;;;;;31.39;20.85;101212.59;4900813;28;99059;-63
2021/04/26 08:15:39;;;;;;;0.55;0.10;;;;;;;31.98;19.96;101209.59;4900634;28;98091;-61
2021/04/26 08:18:05;;;;;;;1.00;0.20;;;;;;;32.84;19.17;101212.38;4900016;28;127997;-63
2021/04/26 08:20:31;;;;;;;0.47;0.10;;;;;;;33.55;18.74;101205.75;4901970;28;97842;-60
2021/04/26 08:22:57;;;;;;;0.40;0.10;;;;;;;34.13;18.06;101210.59;4900051;28;100769;-63
2021/04/26 08:25:23;;;;;;;1.52;0.10;;;;;;;34.83;17.49;101206.78;4901576;28;103155;-63
2021/04/26 08:27:49;;;;;;;0.60;0.20;;;;;;;34.93;17.98;101203.06;4899736;28;97966;-61
2021/04/26 08:30:16;;;;;;;0.70;0.20;;;;;;;34.99;17.75;101201.44;4897832;28;98991;-63
2021/04/26 08:32:42;;;;;;;0.93;0.10;;;;;;;35.80;17.00;101193.16;4899157;28;98786;-62
2021/04/26 08:35:08;;;;;;;0.95;0.20;;;;;;;36.62;16.27;101194.63;4898968;28;126348;-60
2021/04/26 08:37:34;;;;;;;0.80;0.20;;;;;;;37.30;15.74;101198.91;4898961;28;113613;-63
2021/04/26 08:40:00;;;;;;;0.63;0.10;;;;;;;38.29;14.95;101208.28;4899563;28;118183;-63
2021/04/26 08:42:27;;;;;;;0.73;0.10;;;;;;;39.20;14.61;101211.84;4899354;28;127966;-63
2021/04/26 08:44:53;;;;;;;0.80;0.10;;;;;;;36.89;16.45;101198.53;4894892;28;99062;-63
2021/04/26 08:47:22;;;;;;;0.60;0.20;;;;;;;38.35;15.22;101200.91;4900245;28;98232;-61
2021/04/26 08:49:48;;;;;;;1.50;0.20;;;;;;;39.00;14.26;101192.31;4901300;28;97954;-61
2021/04/26 08:52:14;;;;;;;0.80;0.20;;;;;;;39.71;14.11;101189.41;4900812;28;107326;-63
2021/04/26 08:54:43;;;;;;;0.70;0.17;;;;;;;40.28;13.70;101178.25;4899296;28;128849;-63
2021/04/26 08:57:09;;;;;;;0.60;0.20;;;;;;;40.51;13.08;101181.91;4899774;28;126348;-61
2021/04/26 08:59:35;;;;;;;0.40;0.10;;;;;;;40.94;13.13;101179.13;4898992;28;118849;-63
2021/04/26 09:02:05;;;;;;;0.93;0.20;;;;;;;41.03;13.17;101172.75;4899535;28;98203;-63
2021/04/26 09:04:34;;;;;;;0.93;0.20;;;;;;;41.43;12.73;101174.91;4899785;28;99129;-63
2021/04/26 09:07:03;;;;;;;1.27;0.20;;;;;;;41.91;13.00;101169.72;4897949;28;98038;-63
2021/04/26 09:09:49;;;;;;;0.90;0.20;;;;;;;42.08;12.22;101162.50;4900722;28;97814;-61
2021/04/26 09:12:29;;;;;;;0.50;0.20;;;;;;;42.23;11.97;101161.91;4899418;28;98253;-61
2021/04/26 09:14:59;;;;;;;1.15;0.10;;;;;;;38.04;15.71;101170.34;4898094;28;98307;-60
2021/04/26 09:17:29;;;;;;;;;;;;;;;37.90;15.74;101150.22;4900543;28;98440;-60
2021/04/26 09:19:58;;;;;;;0.70;0.10;;;;;;;38.23;15.05;101146.13;4899703;28;98652;-63
2021/04/26 09:22:54;;;;;;;0.60;0.10;;;;;;;39.01;14.61;101142.41;4899024;28;115128;-63
2021/04/26 09:25:29;;;;;;;0.60;0.20;;;;;;;39.95;13.97;101141.09;4899196;28;98441;-60
2021/04/26 09:28:35;;;;;;;0.50;0.10;;;;;;;40.24;13.93;101138.06;4899136;28;99340;-63
2021/04/26 09:31:01;;;;;;;0.75;0.10;;;;;;;37.50;16.13;101134.25;4874754;28;117845;-61
2021/04/26 09:33:39;;;;;;;1.10;0.10;;;;;;;39.29;14.43;101123.84;4876735;28;99021;-60
2021/04/26 09:36:21;;;;;;;0.63;0.10;;;;;;;40.82;13.14;101125.53;4885150;28;98044;-61
2021/04/26 09:38:49;;;;;;;0.82;0.10;;;;;;;42.24;12.29;101135.97;4899144;28;97996;-61
2021/04/26 09:41:32;;;;;;;0.85;0.15;;;;;;;43.02;11.69;101128.00;4898201;28;98038;-63
2021/04/26 09:44:00;;;;;;;0.60;0.20;;;;;;;43.28;11.45;101122.75;4900621;28;98930;-64
2021/04/26 09:46:47;;;;;;;0.50;0.20;;;;;;;44.42;10.88;101119.81;4898921;28;99031;-63
2021/04/26 09:49:21;;;;;;;0.93;0.10;;;;;;;44.40;10.83;101113.06;4899344;28;98147;-64
2021/04/26 09:51:49;;;;;;;0.60;0.20;;;;;;;44.74;10.98;101100.25;4899709;28;97946;-61
2021/04/26 09:54:15;;;;;;;0.80;0.20;;;;;;;44.72;10.72;101100.75;4899257;28;98842;-61
2021/04/26 09:56:44;;;;;;;0.35;0.10;;;;;;;44.94;10.56;101094.66;4899531;28;98254;-63
2021/04/26 09:59:12;;;;;;;1.77;0.10;;;;;;;44.83;10.75;101089.56;4897951;28;98220;-64
2021/04/26 10:01:38;;;;;;;1.00;0.20;;;;;;;44.87;10.50;101085.75;4899819;28;98150;-64
2021/04/26 10:04:05;;;;;;;0.80;0.20;;;;;;;45.14;10.61;101076.91;4898678;28;119082;-64
2021/04/26 10:06:31;;;;;;;0.45;0.15;;;;;;;45.54;10.28;101079.03;4899809;28;98761;-64
2021/04/26 10:09:00;;;;;;;1.48;0.20;;;;;;;45.56;10.35;101080.63;4880924;28;113363;-63
2021/04/26 10:11:28;;;;;;;0.63;0.20;;;;;;;45.76;10.27;101077.78;4897209;28;98078;-61
2021/04/26 10:14:08;;;;;;;0.95;0.20;;;;;;;45.80;10.21;101064.09;4898184;28;98450;-64
2021/04/26 10:17:04;;;;;;;0.90;0.20;;;;;;;45.70;10.52;101062.69;4893647;28;98618;-64
2021/04/26 10:19:32;;;;;;;0.75;0.20;;;;;;;46.11;10.04;101068.38;4897330;28;115104;-64
2021/04/26 10:22:00;;;;;;;1.63;0.20;;;;;;;46.10;10.00;101070.41;4899586;28;98044;-64
2021/04/26 10:24:28;;;;;;;0.93;0.20;;;;;;;45.93;10.26;101056.00;4898569;28;107250;-61
2021/04/26 10:27:07;;;;;;;0.50;0.20;;;;;;;46.21;10.38;101049.84;4898066;28;98680;-61
2021/04/26 10:29:35;;;;;;;0.60;0.20;;;;;;;46.58;9.69;101052.03;4898836;28;98460;-64
2021/04/26 10:32:13;;;;;;;1.38;0.20;;;;;;;46.74;9.71;101043.59;4898511;28;98531;-61
2021/04/26 10:34:42;;;;;;;1.02;0.20;;;;;;;46.87;9.69;101040.31;4898838;28;98110;-61
2021/04/26 10:37:17;;;;;;;0.50;0.20;;;;;;;47.23;9.64;101040.81;4899076;28;99096;-64
2021/04/26 10:39:58;;;;;;;0.80;0.20;;;;;;;47.10;9.71;101029.09;4898434;28;97883;-61
2021/04/26 10:42:45;;;;;;;0.95;0.20;;;;;;;47.01;9.53;101026.44;4898760;28;97875;-61
2021/04/26 10:45:19;;;;;;;0.43;0.10;;;;;;;46.48;9.82;101011.50;4898637;28;99040;-63
2021/04/26 10:47:51;;;;;;;0.40;0.10;;;;;;;46.46;10.20;101014.09;4899531;28;98434;-61
2021/04/26 10:50:19;;;;;;;0.75;0.20;;;;;;;46.28;9.93;101008.75;4897565;28;98326;-64
2021/04/26 10:52:48;;;;;;;0.50;0.20;;;;;;;46.40;10.00;101004.72;4899178;28;98133;-61
2021/04/26 10:55:23;;;;;;;1.07;0.20;;;;;;;46.32;9.82;101001.53;4898270;28;99127;-64
2021/04/26 10:57:55;;;;;;;1.23;0.20;;;;;;;46.06;10.09;101003.59;4898978;28;98590;-63
2021/04/26 11:00:31;;;;;;;0.77;0.20;;;;;;;45.68;10.31;100997.75;4898248;28;98530;-61
2021/04/26 11:03:25;;;;;;;0.60;0.20;;;;;;;45.53;10.44;100991.34;4898981;28;99237;-63
2021/04/26 11:05:54;;;;;;;0.40;0.20;;;;;;;44.91;10.98;100987.63;4898333;28;98604;-61
2021/04/26 11:08:31;;;;;;;1.52;0.20;;;;;;;44.65;11.21;100995.19;4898596;28;107670;-61
2021/04/26 11:11:09;;;;;;;0.65;0.17;;;;;;;44.08;11.74;100982.09;4896363;28;97965;-61
2021/04/26 11:13:47;;;;;;;0.70;0.10;;;;;;;43.55;11.67;100980.81;4898921;28;97678;-61
2021/04/26 11:16:21;;;;;;;0.38;0.10;;;;;;;42.97;12.02;100982.09;4897472;28;97886;-61
2021/04/26 11:18:59;;;;;;;0.50;0.15;;;;;;;42.85;12.06;100975.38;4899182;28;98419;-63
2021/04/26 11:21:43;;;;;;;1.30;0.17;;;;;;;42.62;12.81;100970.41;4898198;28;98456;-61
2021/04/26 11:24:33;;;;;;;0.80;0.10;;;;;;;42.54;12.21;100967.13;4899259;28;98035;-60
2021/04/26 11:27:08;;;;;;;0.97;0.20;;;;;;;43.20;12.59;100963.56;4897902;28;99139;-60
2021/04/26 11:29:35;;;;;;;0.75;0.10;;;;;;;43.10;12.00;100967.69;4898659;28;98188;-64
2021/04/26 11:32:04;;;;;;;0.95;0.20;;;;;;;43.14;11.52;100952.06;4897476;28;113413;-63
2021/04/26 11:34:50;;;;;;;1.55;0.10;;;;;;;44.02;11.47;100950.78;4898320;28;97948;-63